createdAt,value
2022-11-17T00:01:38.657Z,76.30
2022-11-17T00:04:08.376Z,76.20
2022-11-17T00:06:36.592Z,76.30
2022-11-17T00:09:04.887Z,76.10
2022-11-17T00:11:53.318Z,76.20
2022-11-17T00:14:36.849Z,76.20
2022-11-17T00:17:05.802Z,76.20
2022-11-17T00:19:52.803Z,76.30
2022-11-17T00:22:21.239Z,76.10
2022-11-17T00:24:49.773Z,76.10
2022-11-17T00:27:18.484Z,76.20
2022-11-17T00:29:46.758Z,76.30
2022-11-17T00:32:34.128Z,76.30
2022-11-17T00:35:04.046Z,76.50
2022-11-17T00:37:36.739Z,76.50
2022-11-17T00:40:05.883Z,76.50
2022-11-17T00:42:34.140Z,76.50
2022-11-17T00:45:02.365Z,76.40
2022-11-17T00:47:30.608Z,76.40
2022-11-17T00:49:58.888Z,76.40
2022-11-17T00:52:28.477Z,76.40
2022-11-17T00:54:56.783Z,76.50
2022-11-17T00:57:25.328Z,76.40
2022-11-17T00:59:53.561Z,76.40
2022-11-17T01:02:21.805Z,76.50
2022-11-17T01:04:50.062Z,76.50
2022-11-17T01:07:18.443Z,76.60
2022-11-17T01:09:48.401Z,76.60
2022-11-17T01:12:16.655Z,76.50
2022-11-17T01:14:44.842Z,76.50
2022-11-17T01:17:13.097Z,76.50
2022-11-17T01:19:41.398Z,76.50
2022-11-17T01:22:09.621Z,76.50
2022-11-17T01:24:37.841Z,76.50
2022-11-17T01:27:07.459Z,76.50
2022-11-17T01:29:35.746Z,76.60
2022-11-17T01:32:03.969Z,76.50
2022-11-17T01:34:32.382Z,76.50
2022-11-17T01:37:17.858Z,76.60
2022-11-17T01:39:46.120Z,76.70
2022-11-17T01:42:18.201Z,76.70
2022-11-17T01:45:01.482Z,76.80
2022-11-17T01:47:37.021Z,76.80
2022-11-17T01:50:11.286Z,76.70
2022-11-17T01:52:41.115Z,76.70
2022-11-17T01:55:11.165Z,76.70
2022-11-17T01:57:46.440Z,76.70
2022-11-17T02:00:15.677Z,76.80
2022-11-17T02:02:46.502Z,76.80
2022-11-17T02:05:35.072Z,76.90
2022-11-17T02:08:07.088Z,77.00
2022-11-17T02:10:36.474Z,76.80
2022-11-17T02:13:08.806Z,76.80
2022-11-17T02:15:37.251Z,76.80
2022-11-17T02:18:06.089Z,76.80
2022-11-17T02:20:49.292Z,76.80
2022-11-17T02:23:44.921Z,77.00
2022-11-17T02:26:54.417Z,77.00
2022-11-17T02:29:29.462Z,76.90
2022-11-17T02:32:06.179Z,76.70
2022-11-17T02:34:47.003Z,76.60
2022-11-17T02:37:25.721Z,76.60
2022-11-17T02:40:00.277Z,76.60
2022-11-17T02:42:48.480Z,76.60
2022-11-17T02:45:22.036Z,76.50
2022-11-17T02:47:54.928Z,76.50
2022-11-17T02:50:28.188Z,76.40
2022-11-17T02:52:57.040Z,76.40
2022-11-17T02:55:25.274Z,76.40
2022-11-17T02:57:53.479Z,76.40
2022-11-17T03:00:23.252Z,76.40
2022-11-17T03:03:11.707Z,76.50
2022-11-17T03:05:49.668Z,76.90
2022-11-17T03:08:32.779Z,76.70
2022-11-17T03:11:02.693Z,76.80
2022-11-17T03:13:40.463Z,76.50
2022-11-17T03:16:17.852Z,76.60
2022-11-17T03:18:59.588Z,76.90
2022-11-17T03:21:31.062Z,77.00
2022-11-17T03:24:05.152Z,77.00
2022-11-17T03:26:36.004Z,77.20
2022-11-17T03:29:10.075Z,77.20
2022-11-17T03:31:42.026Z,77.40
2022-11-17T03:34:14.621Z,77.40
2022-11-17T03:36:48.370Z,77.40
2022-11-17T03:39:24.099Z,77.40
2022-11-17T03:41:58.235Z,77.50
2022-11-17T03:44:30.047Z,77.50
2022-11-17T03:47:02.986Z,77.60
2022-11-17T03:49:38.192Z,77.80
2022-11-17T03:52:07.041Z,77.90
2022-11-17T03:54:36.698Z,77.80
2022-11-17T03:57:10.797Z,78.00
2022-11-17T03:59:45.654Z,78.20
2022-11-17T04:02:19.533Z,78.30
2022-11-17T04:05:05.548Z,78.50
2022-11-17T04:07:52.020Z,78.30
2022-11-17T04:11:14.755Z,78.60
2022-11-17T04:14:09.433Z,78.70
2022-11-17T04:16:37.780Z,78.40
2022-11-17T04:19:07.913Z,78.50
2022-11-17T04:21:36.307Z,78.70
2022-11-17T04:24:04.866Z,78.80
2022-11-17T04:26:50.499Z,79.00
2022-11-17T04:29:18.927Z,78.90
2022-11-17T04:31:47.251Z,79.00
2022-11-17T04:34:16.864Z,79.10
2022-11-17T04:36:45.198Z,79.20
2022-11-17T04:39:14.724Z,79.10
2022-11-17T04:41:54.751Z,79.20
2022-11-17T04:44:25.451Z,79.20
2022-11-17T04:46:54.345Z,79.30
2022-11-17T04:49:25.742Z,79.20
2022-11-17T04:51:54.810Z,79.30
2022-11-17T04:54:24.761Z,79.40
2022-11-17T04:56:53.618Z,79.40
2022-11-17T04:59:21.882Z,79.40
2022-11-17T05:01:50.457Z,79.40
2022-11-17T05:04:40.387Z,79.50
2022-11-17T05:07:10.485Z,79.50
2022-11-17T05:09:38.806Z,79.50
2022-11-17T05:12:24.966Z,79.50
2022-11-17T05:14:53.190Z,80.20
2022-11-17T05:17:20.389Z,79.50
2022-11-17T05:19:49.527Z,79.50
2022-11-17T05:22:40.147Z,79.60
2022-11-17T05:25:09.501Z,79.70
2022-11-17T05:27:37.870Z,79.60
2022-11-17T05:30:08.273Z,79.60
2022-11-17T05:32:36.483Z,79.70
2022-11-17T05:35:04.983Z,79.60
2022-11-17T05:37:34.836Z,79.80
2022-11-17T05:40:03.066Z,79.80
2022-11-17T05:42:31.244Z,79.80
2022-11-17T05:44:59.495Z,79.80
2022-11-17T05:47:27.714Z,79.80
2022-11-17T05:49:55.905Z,79.80
2022-11-17T05:52:24.073Z,79.80
2022-11-17T05:54:53.700Z,79.80
2022-11-17T05:57:30.157Z,79.90
2022-11-17T06:00:04.617Z,80.00
2022-11-17T06:02:39.504Z,79.90
2022-11-17T06:05:08.822Z,79.80
2022-11-17T06:07:37.984Z,79.70
2022-11-17T06:10:08.347Z,79.80
2022-11-17T06:12:36.605Z,79.80
2022-11-17T06:15:05.288Z,79.70
2022-11-17T06:17:37.397Z,79.70
2022-11-17T06:20:09.598Z,79.80
2022-11-17T06:22:38.241Z,79.90
2022-11-17T06:25:10.872Z,79.90
2022-11-17T06:27:40.149Z,80.10
2022-11-17T06:30:09.340Z,80.00
2022-11-17T06:32:40.252Z,80.00
2022-11-17T06:35:11.454Z,80.20
2022-11-17T06:37:39.710Z,80.20
2022-11-17T06:40:13.380Z,80.10
2022-11-17T06:42:58.789Z,80.40
2022-11-17T06:45:27.066Z,80.30
2022-11-17T06:47:55.565Z,80.30
2022-11-17T06:50:23.863Z,80.30
2022-11-17T06:52:52.227Z,81.20
2022-11-17T06:55:22.043Z,80.40
2022-11-17T06:57:53.597Z,80.60
2022-11-17T07:00:22.502Z,81.20
2022-11-17T07:02:50.768Z,80.50
2022-11-17T07:05:19.128Z,80.50
2022-11-17T07:07:47.660Z,80.50
2022-11-17T07:10:16.008Z,80.60
2022-11-17T07:12:47.256Z,80.60
2022-11-17T07:15:15.712Z,80.80
2022-11-17T07:17:44.072Z,80.70
2022-11-17T07:20:13.251Z,80.70
2022-11-17T07:22:42.406Z,80.90
2022-11-17T07:25:11.548Z,80.90
2022-11-17T07:27:40.210Z,80.90
2022-11-17T07:30:11.809Z,81.00
2022-11-17T07:32:40.113Z,81.20
2022-11-17T07:35:09.240Z,81.10
2022-11-17T07:37:37.499Z,81.20
2022-11-17T07:40:06.695Z,81.30
2022-11-17T07:42:35.322Z,81.40
2022-11-17T07:45:03.645Z,81.30
2022-11-17T07:47:33.547Z,81.40
2022-11-17T07:50:01.799Z,81.50
2022-11-17T07:52:30.116Z,81.50
2022-11-17T07:54:58.416Z,81.40
2022-11-17T07:57:28.745Z,81.40
2022-11-17T07:59:56.959Z,81.40
2022-11-17T08:02:25.254Z,81.40
2022-11-17T08:04:54.953Z,82.20
2022-11-17T08:07:23.370Z,81.60
2022-11-17T08:09:51.706Z,81.50
2022-11-17T08:12:19.991Z,81.50
2022-11-17T08:14:48.275Z,81.50
2022-11-17T08:17:17.541Z,81.50
2022-11-17T08:19:45.783Z,81.60
2022-11-17T08:22:15.397Z,81.70
2022-11-17T08:24:43.691Z,81.90
2022-11-17T08:27:12.025Z,81.70
2022-11-17T08:29:40.378Z,81.80
2022-11-17T08:32:08.684Z,81.70
2022-11-17T08:34:36.969Z,81.80
2022-11-17T08:37:05.270Z,81.70
2022-11-17T08:39:35.067Z,81.80
2022-11-17T08:42:03.736Z,81.90
2022-11-17T08:44:32.815Z,81.80
2022-11-17T08:47:01.089Z,82.50
2022-11-17T08:49:29.319Z,81.80
2022-11-17T08:51:57.559Z,81.90
2022-11-17T08:54:25.875Z,81.90
2022-11-17T08:56:59.780Z,81.80
2022-11-17T08:59:28.135Z,82.10
2022-11-17T09:01:56.433Z,81.80
2022-11-17T09:04:24.785Z,81.80
2022-11-17T09:06:53.078Z,81.90
2022-11-17T09:09:21.581Z,81.90
2022-11-17T09:11:50.170Z,82.00
2022-11-17T09:14:20.205Z,82.00
2022-11-17T09:16:48.522Z,82.10
2022-11-17T09:19:17.492Z,82.10
2022-11-17T09:21:45.891Z,82.10
2022-11-17T09:24:14.167Z,82.10
2022-11-17T09:26:43.043Z,82.20
2022-11-17T09:29:11.651Z,82.10
2022-11-17T09:31:41.390Z,82.10
2022-11-17T09:34:09.939Z,82.20
2022-11-17T09:36:38.289Z,82.10
2022-11-17T09:39:06.554Z,82.30
2022-11-17T09:41:41.934Z,82.30
2022-11-17T09:44:23.569Z,82.50
2022-11-17T09:47:16.312Z,82.50
2022-11-17T09:49:58.359Z,82.70
2022-11-17T09:52:34.599Z,82.30
2022-11-17T09:55:07.670Z,82.20
2022-11-17T09:57:46.166Z,82.00
2022-11-17T10:00:22.918Z,82.20
2022-11-17T10:02:55.422Z,82.20
2022-11-17T10:05:30.126Z,82.00
2022-11-17T10:08:07.428Z,82.20
2022-11-17T10:10:40.279Z,82.10
2022-11-17T10:13:15.654Z,82.20
2022-11-17T10:15:48.364Z,82.40
2022-11-17T10:18:18.771Z,82.20
2022-11-17T10:20:47.407Z,82.20
2022-11-17T10:23:18.370Z,82.10
2022-11-17T10:25:47.440Z,82.00
2022-11-17T10:28:29.483Z,82.00
2022-11-17T10:31:01.247Z,82.00
2022-11-17T10:33:39.729Z,81.70
2022-11-17T10:36:15.929Z,81.50
2022-11-17T10:38:46.642Z,81.30
2022-11-17T10:41:18.119Z,81.20
2022-11-17T10:43:59.351Z,81.00
2022-11-17T10:46:32.131Z,80.80
2022-11-17T10:49:25.620Z,80.80
2022-11-17T10:52:07.256Z,80.20
2022-11-17T10:54:36.793Z,79.60
2022-11-17T10:57:09.714Z,79.50
2022-11-17T10:59:45.870Z,79.20
2022-11-17T11:02:30.612Z,78.80
2022-11-17T11:05:12.509Z,78.50
2022-11-17T11:07:42.234Z,78.00
2022-11-17T11:10:17.814Z,78.30
2022-11-17T11:12:50.527Z,78.20
2022-11-17T11:15:22.230Z,78.40
2022-11-17T11:17:51.009Z,78.30
2022-11-17T11:20:25.571Z,78.30
2022-11-17T11:23:00.878Z,78.30
2022-11-17T11:25:37.497Z,78.20
2022-11-17T11:28:18.430Z,78.30
2022-11-17T11:30:56.831Z,78.20
2022-11-17T11:33:35.311Z,78.30
2022-11-17T11:36:36.399Z,78.20
2022-11-17T11:39:14.152Z,78.30
2022-11-17T11:41:57.395Z,78.20
2022-11-17T11:44:47.527Z,77.70
2022-11-17T11:47:34.504Z,77.60
2022-11-17T11:50:07.192Z,77.60
2022-11-17T11:52:41.628Z,77.90
2022-11-17T11:55:22.152Z,77.70
2022-11-17T11:57:56.128Z,77.50
2022-11-17T12:00:24.769Z,77.40
2022-11-17T12:03:00.091Z,77.40
2022-11-17T12:05:34.433Z,77.20
2022-11-17T12:08:11.272Z,77.30
2022-11-17T12:10:45.608Z,77.20
2022-11-17T12:13:15.917Z,76.90
2022-11-17T12:15:44.637Z,76.60
2022-11-17T12:18:20.420Z,76.50
2022-11-17T12:21:07.097Z,76.40
2022-11-17T12:23:58.874Z,76.40
2022-11-17T12:26:29.917Z,76.70
2022-11-17T12:29:32.855Z,76.60
2022-11-17T12:32:03.303Z,76.40
2022-11-17T12:34:36.862Z,76.60
2022-11-17T12:37:27.600Z,76.60
2022-11-17T12:40:09.845Z,76.30
2022-11-17T12:43:17.510Z,76.30
2022-11-17T12:46:05.345Z,76.20
2022-11-17T12:48:35.827Z,76.00
2022-11-17T12:51:12.339Z,76.30
2022-11-17T12:54:01.655Z,76.20
2022-11-17T12:56:43.117Z,76.20
2022-11-17T12:59:34.762Z,76.00
2022-11-17T13:02:18.574Z,75.80
2022-11-17T13:04:51.553Z,75.50
2022-11-17T13:07:21.838Z,75.70
2022-11-17T13:09:57.017Z,75.60
2022-11-17T13:12:26.990Z,75.40
2022-11-17T13:14:56.918Z,75.40
2022-11-17T13:17:29.679Z,75.40
2022-11-17T13:20:03.915Z,74.90
2022-11-17T13:22:33.581Z,74.80
2022-11-17T13:25:20.272Z,75.00
2022-11-17T13:27:54.927Z,74.60
2022-11-17T13:30:28.161Z,74.90
2022-11-17T13:32:59.391Z,74.80
2022-11-17T13:35:29.382Z,74.90
2022-11-17T13:38:06.399Z,75.00
2022-11-17T13:40:37.186Z,75.10
2022-11-17T13:43:06.939Z,75.40
2022-11-17T13:45:35.279Z,75.40
2022-11-17T14:32:50.377Z,77.30
2022-11-17T14:37:51.717Z,76.90
2022-11-17T14:40:20.251Z,77.00
2022-11-17T14:42:48.480Z,76.80
2022-11-17T14:45:18.093Z,76.90
2022-11-17T14:47:47.711Z,77.00
2022-11-17T14:50:17.927Z,77.00
2022-11-17T14:52:47.133Z,77.00
2022-11-17T14:55:15.823Z,76.90
2022-11-17T14:57:45.076Z,76.90
2022-11-17T15:00:18.988Z,77.60
2022-11-17T15:02:51.169Z,76.90
2022-11-17T15:05:19.655Z,76.80
2022-11-17T15:07:50.717Z,76.80
2022-11-17T15:10:19.440Z,76.80
2022-11-17T15:12:47.696Z,76.70
2022-11-17T15:15:16.095Z,76.70
2022-11-17T15:17:44.382Z,76.80
2022-11-17T15:20:14.762Z,76.90
2022-11-17T15:22:43.073Z,76.90
2022-11-17T15:25:11.616Z,77.00
2022-11-17T15:27:39.933Z,77.00
2022-11-17T15:30:09.664Z,77.10
2022-11-17T15:32:38.406Z,77.30
2022-11-17T15:35:07.734Z,77.20
2022-11-17T15:37:37.383Z,77.30
2022-11-17T15:40:06.759Z,77.40
2022-11-17T15:42:35.022Z,77.40
2022-11-17T15:45:03.284Z,77.40
2022-11-17T15:47:31.532Z,77.40
2022-11-17T15:49:59.864Z,77.50
2022-11-17T15:52:48.744Z,77.70
2022-11-17T15:55:17.965Z,77.70
2022-11-17T15:57:46.489Z,77.90
2022-11-17T16:00:16.301Z,78.00
2022-11-17T16:02:44.785Z,78.10
2022-11-17T16:05:13.052Z,78.10
2022-11-17T16:07:41.468Z,78.10
2022-11-17T16:10:11.543Z,78.30
2022-11-17T16:12:41.410Z,78.30
2022-11-17T16:15:10.618Z,78.40
2022-11-17T16:17:38.938Z,78.40
2022-11-17T16:20:08.763Z,78.40
2022-11-17T16:22:37.086Z,78.40
2022-11-17T16:25:07.269Z,78.40
2022-11-17T16:27:35.533Z,78.40
2022-11-17T16:30:05.995Z,78.30
2022-11-17T16:32:34.378Z,78.40
2022-11-17T16:35:02.678Z,78.40
2022-11-17T16:37:30.888Z,78.40
2022-11-17T16:39:59.160Z,78.40
2022-11-17T16:42:27.397Z,78.30
2022-11-17T16:44:56.168Z,78.40
2022-11-17T16:47:26.332Z,78.40
2022-11-17T16:49:54.666Z,78.30
2022-11-17T16:52:22.979Z,78.20
2022-11-17T16:54:51.315Z,78.20
2022-11-17T16:57:19.786Z,78.20
2022-11-17T16:59:48.104Z,78.10
2022-11-17T17:02:16.295Z,78.00
2022-11-17T17:04:46.315Z,78.00
2022-11-17T17:07:15.696Z,78.10
2022-11-17T17:09:44.023Z,78.00
2022-11-17T17:12:13.016Z,78.10
2022-11-17T17:14:41.301Z,78.20
2022-11-17T17:17:09.780Z,78.20
2022-11-17T17:19:38.122Z,78.30
2022-11-17T17:22:07.817Z,78.30
2022-11-17T17:24:36.085Z,78.50
2022-11-17T17:27:05.130Z,78.50
2022-11-17T17:29:33.865Z,78.60
2022-11-17T17:32:02.259Z,78.70
2022-11-17T17:34:30.624Z,78.80
2022-11-17T17:36:58.905Z,78.90
2022-11-17T17:39:29.254Z,78.90
2022-11-17T17:41:57.460Z,79.10
2022-11-17T17:44:26.011Z,79.10
2022-11-17T17:46:54.628Z,79.90
2022-11-17T17:49:22.992Z,79.10
2022-11-17T17:51:51.352Z,79.20
2022-11-17T17:54:21.435Z,79.10
2022-11-17T17:56:51.318Z,79.20
2022-11-17T17:59:20.041Z,79.20
2022-11-17T18:01:49.684Z,79.30
2022-11-17T18:04:17.991Z,79.30
2022-11-17T18:06:48.452Z,79.40
2022-11-17T18:09:19.742Z,79.60
2022-11-17T18:11:51.320Z,79.60
2022-11-17T18:14:24.845Z,79.70
2022-11-17T18:16:54.381Z,79.80
2022-11-17T18:19:25.769Z,79.70
2022-11-17T18:21:56.777Z,79.70
2022-11-17T18:24:25.985Z,79.60
2022-11-17T18:26:55.663Z,79.80
2022-11-17T18:29:24.223Z,79.90
2022-11-17T18:31:52.467Z,79.80
2022-11-17T18:34:22.938Z,79.90
2022-11-17T18:36:55.671Z,80.00
2022-11-17T18:39:24.116Z,80.10
2022-11-17T18:41:52.367Z,80.20
2022-11-17T18:44:22.103Z,80.20
2022-11-17T18:46:50.571Z,80.30
2022-11-17T18:49:19.574Z,80.20
2022-11-17T18:51:48.306Z,80.40
2022-11-17T18:54:16.801Z,80.40
2022-11-17T18:56:45.727Z,80.40
2022-11-17T18:59:14.652Z,80.50
2022-11-17T19:01:44.793Z,81.20
2022-11-17T19:04:15.012Z,80.70
2022-11-17T19:06:43.367Z,80.80
2022-11-17T19:09:11.824Z,80.80
2022-11-17T19:11:40.159Z,80.90
2022-11-17T19:14:08.766Z,80.80
2022-11-17T19:16:44.036Z,81.00
2022-11-17T19:19:15.662Z,81.00
2022-11-17T19:21:44.525Z,81.20
2022-11-17T19:24:12.939Z,81.20
2022-11-17T19:26:41.234Z,81.20
2022-11-17T19:29:16.734Z,81.10
2022-11-17T19:31:45.976Z,81.30
2022-11-17T19:34:17.418Z,81.20
2022-11-17T19:36:45.947Z,81.30
2022-11-17T19:39:15.447Z,81.20
2022-11-17T19:41:45.090Z,81.30
2022-11-17T19:44:13.582Z,81.30
2022-11-17T19:46:42.664Z,81.30
2022-11-17T19:49:12.465Z,81.40
2022-11-17T19:51:42.374Z,81.50
2022-11-17T19:54:13.026Z,81.60
2022-11-17T19:56:41.308Z,81.70
2022-11-17T19:59:15.620Z,81.70
2022-11-17T20:01:44.900Z,81.70
2022-11-17T20:04:13.331Z,81.80
2022-11-17T20:06:42.966Z,81.70
2022-11-17T20:09:13.373Z,81.70
2022-11-17T20:11:42.579Z,81.70
2022-11-17T20:14:10.871Z,81.60
2022-11-17T20:16:39.634Z,81.60
2022-11-17T20:19:08.021Z,81.70
2022-11-17T20:21:36.413Z,81.80
2022-11-17T20:24:06.834Z,81.80
2022-11-17T20:26:36.491Z,81.90
2022-11-17T20:29:05.023Z,81.90
2022-11-17T20:31:35.295Z,81.90
2022-11-17T20:34:05.607Z,81.90
2022-11-17T20:36:35.277Z,81.90
2022-11-17T20:39:06.678Z,81.80
2022-11-17T20:41:35.731Z,81.80
2022-11-17T20:44:04.371Z,81.80
2022-11-17T20:46:32.654Z,81.80
2022-11-17T20:49:01.529Z,81.70
2022-11-17T20:51:29.853Z,81.60
2022-11-17T20:53:58.112Z,81.70
2022-11-17T20:56:27.711Z,81.70
2022-11-17T20:58:55.933Z,81.70
2022-11-17T21:01:24.478Z,81.60
2022-11-17T21:03:53.353Z,81.60
2022-11-17T21:06:23.099Z,81.60
2022-11-17T21:08:51.663Z,81.60
2022-11-17T21:11:35.659Z,81.60
2022-11-17T21:14:06.631Z,81.60
2022-11-17T21:16:36.730Z,81.50
2022-11-17T21:19:05.368Z,82.20
2022-11-17T21:21:33.698Z,81.50
2022-11-17T21:24:02.049Z,81.50
2022-11-17T21:26:30.432Z,81.60
2022-11-17T21:29:04.784Z,81.60
2022-11-17T21:31:36.942Z,81.70
2022-11-17T21:34:07.507Z,81.70
2022-11-17T21:36:36.944Z,81.70
2022-11-17T21:39:05.724Z,81.70
2022-11-17T21:41:36.263Z,81.70
2022-11-17T21:44:04.987Z,81.60
2022-11-17T21:46:36.451Z,81.60
2022-11-17T21:49:05.555Z,81.60
2022-11-17T21:51:38.514Z,81.70
2022-11-17T21:54:09.117Z,81.80
2022-11-17T21:56:38.169Z,81.90
2022-11-17T21:59:08.539Z,81.90
2022-11-17T22:01:38.670Z,81.90
2022-11-17T22:04:07.538Z,81.80
2022-11-17T22:06:36.058Z,81.70
2022-11-17T22:09:04.916Z,81.60
2022-11-17T22:11:36.996Z,81.60
2022-11-17T22:14:11.878Z,81.60
2022-11-17T22:16:42.966Z,81.80
2022-11-17T22:19:12.979Z,81.70
2022-11-17T22:21:42.336Z,81.70
2022-11-17T22:24:13.018Z,81.80
2022-11-17T22:26:42.741Z,81.80
2022-11-17T22:29:14.713Z,81.70
2022-11-17T22:31:45.335Z,82.50
2022-11-17T22:34:14.328Z,81.70
2022-11-17T22:36:42.893Z,81.70
2022-11-17T22:39:11.355Z,81.70
2022-11-17T22:41:39.682Z,81.70
2022-11-17T22:44:08.493Z,81.70
2022-11-17T22:46:36.958Z,81.70
2022-11-17T22:49:06.620Z,81.70
2022-11-17T22:51:52.264Z,81.70
2022-11-17T22:54:20.766Z,81.60
2022-11-17T22:56:49.063Z,81.60
2022-11-17T22:59:17.677Z,81.60
2022-11-17T23:01:46.300Z,81.60
2022-11-17T23:04:16.489Z,81.60
2022-11-17T23:06:45.122Z,81.70
2022-11-17T23:09:13.488Z,81.60
2022-11-17T23:11:41.924Z,81.60
2022-11-17T23:14:13.443Z,81.70
2022-11-17T23:16:42.010Z,82.00
2022-11-17T23:19:14.040Z,82.00
2022-11-17T23:21:43.859Z,82.00
2022-11-17T23:24:14.622Z,82.00
2022-11-17T23:26:43.578Z,82.00
2022-11-17T23:29:12.201Z,81.90
2022-11-17T23:31:40.815Z,82.00
2022-11-17T23:34:10.727Z,82.00
2022-11-17T23:36:39.210Z,82.10
2022-11-17T23:39:08.951Z,82.10
2022-11-17T23:41:37.231Z,82.20
2022-11-17T23:44:06.069Z,82.00
2022-11-17T23:46:34.296Z,82.10
2022-11-17T23:49:02.708Z,82.10
2022-11-17T23:51:31.306Z,82.00
2022-11-17T23:54:00.550Z,82.10
2022-11-17T23:56:33.641Z,82.10
2022-11-17T23:59:02.250Z,82.30
